Time;durP1;ratioP1;P1;durP2;ratioP2;P2;SDS_P1;SDS_P2;PMS_P1;PMS_P2;Temp;Humidity;BMP_temperature;BMP_pressure;BME280_temperature;BME280_humidity;BME280_pressure;Samples;Min_cycle;Max_cycle;Signal;HPM_P1;HPM_P2
2021/07/19 00:01:38;;;;;;;17.30;15.17;;;;;;;26.04;100.00;100422.34;5012492;28;20170;-75
2021/07/19 00:04:05;;;;;;;16.17;14.40;;;;;;;26.02;100.00;100432.53;5011112;28;20178;-74
2021/07/19 00:06:31;;;;;;;21.97;15.27;;;;;;;26.12;100.00;100434.78;5012157;28;20191;-75
2021/07/19 00:08:56;;;;;;;18.10;14.90;;;;;;;26.19;100.00;100438.28;5012696;28;20487;-72
2021/07/19 00:11:22;;;;;;;19.00;16.00;;;;;;;26.17;100.00;100443.88;5012039;28;20170;-73
2021/07/19 00:13:48;;;;;;;16.80;13.20;;;;;;;26.18;100.00;100442.84;5007839;28;20672;-73
2021/07/19 00:16:14;;;;;;;18.13;15.60;;;;;;;26.19;100.00;100443.66;5011434;28;20217;-73
2021/07/19 00:18:40;;;;;;;17.37;14.97;;;;;;;26.21;100.00;100434.31;5024360;28;20430;-73
2021/07/19 00:21:06;;;;;;;18.33;14.83;;;;;;;26.20;100.00;100435.38;5010122;28;20451;-75
2021/07/19 00:23:31;;;;;;;17.30;14.97;;;;;;;26.26;100.00;100428.31;5011569;28;20174;-73
2021/07/19 00:25:57;;;;;;;20.20;16.47;;;;;;;26.20;100.00;100421.91;5011575;28;20174;-73
2021/07/19 00:28:23;;;;;;;20.50;14.77;;;;;;;26.20;100.00;100421.06;5011851;28;20554;-73
2021/07/19 00:30:49;;;;;;;15.30;13.70;;;;;;;26.19;100.00;100420.25;5011071;28;20201;-73
2021/07/19 00:33:15;;;;;;;19.67;14.70;;;;;;;26.18;100.00;100421.28;5011091;28;20273;-74
2021/07/19 00:35:41;;;;;;;20.00;15.10;;;;;;;26.21;100.00;100426.22;5010794;28;20565;-73
2021/07/19 00:38:06;;;;;;;24.90;15.63;;;;;;;26.21;100.00;100418.16;5011961;28;20962;-74
2021/07/19 00:40:35;;;;;;;50.00;15.40;;;;;;;26.19;100.00;100417.53;5011225;28;20196;-73
2021/07/19 00:43:02;;;;;;;18.00;14.17;;;;;;;26.23;100.00;100399.94;5010838;28;20177;-73
2021/07/19 00:45:29;;;;;;;20.17;15.03;;;;;;;26.36;100.00;100403.59;5009796;28;20508;-72
2021/07/19 00:47:56;;;;;;;15.83;14.13;;;;;;;26.37;100.00;100383.69;5011170;28;20414;-71
2021/07/19 00:50:24;;;;;;;15.90;13.80;;;;;;;26.34;100.00;100384.13;5010558;28;20483;-73
2021/07/19 00:52:56;;;;;;;19.30;13.40;;;;;;;26.33;100.00;100382.47;4996925;28;20424;-73
2021/07/19 00:55:25;;;;;;;18.40;14.03;;;;;;;26.37;100.00;100381.81;5011148;28;20542;-72
2021/07/19 00:57:54;;;;;;;19.00;14.90;;;;;;;26.42;100.00;100381.22;5010295;28;20409;-73
2021/07/19 01:00:20;;;;;;;17.37;13.40;;;;;;;26.52;100.00;100382.38;5011384;28;20428;-74
2021/07/19 01:02:49;;;;;;;16.77;13.17;;;;;;;26.60;100.00;100383.19;5011357;28;20405;-74
2021/07/19 01:05:14;;;;;;;18.97;13.73;;;;;;;26.69;100.00;100377.34;5010875;28;20198;-74
2021/07/19 01:07:41;;;;;;;14.90;13.30;;;;;;;26.65;100.00;100381.50;5010884;28;20456;-74
2021/07/19 01:10:14;;;;;;;19.20;13.63;;;;;;;26.49;100.00;100382.00;5005986;28;20202;-73
2021/07/19 01:12:49;;;;;;;16.40;14.23;;;;;;;26.36;100.00;100390.13;5008247;28;20414;-75
2021/07/19 01:15:15;;;;;;;21.37;15.13;;;;;;;26.19;100.00;100398.69;5009822;28;20774;-77
2021/07/19 01:17:42;;;;;;;23.57;14.60;;;;;;;26.03;100.00;100399.16;5009977;28;20599;-73
2021/07/19 01:20:08;;;;;;;17.93;14.40;;;;;;;26.06;100.00;100395.22;5010022;28;20452;-73
2021/07/19 01:22:46;;;;;;;23.77;15.67;;;;;;;25.95;100.00;100388.63;5010288;28;20428;-74
2021/07/19 01:25:55;;;;;;;23.70;15.27;;;;;;;25.97;100.00;100379.28;5010441;28;20417;-74
2021/07/19 01:28:42;;;;;;;21.43;16.10;;;;;;;26.00;100.00;100388.84;5009618;28;20425;-73
2021/07/19 01:31:14;;;;;;;17.00;15.20;;;;;;;25.84;100.00;100390.09;5008916;28;20424;-73
2021/07/19 01:33:46;;;;;;;18.83;15.40;;;;;;;25.85;100.00;100380.19;5015249;28;20449;-74
2021/07/19 01:36:15;;;;;;;18.03;15.03;;;;;;;25.79;100.00;100381.00;5018528;28;20560;-75
2021/07/19 01:38:41;;;;;;;17.50;14.97;;;;;;;25.83;100.00;100379.53;5010449;28;20784;-76
2021/07/19 01:41:09;;;;;;;21.27;15.13;;;;;;;25.77;100.00;100392.00;5010924;28;20424;-76
2021/07/19 01:43:34;;;;;;;19.93;14.93;;;;;;;25.70;100.00;100386.59;5010648;28;20463;-73
2021/07/19 01:46:02;;;;;;;17.93;14.30;;;;;;;25.84;100.00;100392.78;5010411;28;20433;-72
2021/07/19 01:48:31;;;;;;;15.40;13.80;;;;;;;25.86;100.00;100385.34;5011469;28;20198;-73
2021/07/19 01:50:58;;;;;;;20.90;13.93;;;;;;;25.91;100.00;100384.69;5010684;28;20885;-72
2021/07/19 01:53:25;;;;;;;16.80;13.00;;;;;;;25.89;100.00;100376.84;5010669;28;20431;-77
2021/07/19 01:55:51;;;;;;;14.40;12.23;;;;;;;25.89;100.00;100384.09;5010771;28;20445;-75
2021/07/19 01:58:17;;;;;;;23.13;12.70;;;;;;;25.94;100.00;100387.81;5010479;28;20417;-76
2021/07/19 02:00:43;;;;;;;18.03;13.70;;;;;;;26.03;100.00;100388.41;5008687;28;20428;-74
2021/07/19 02:03:09;;;;;;;17.13;12.93;;;;;;;26.00;100.00;100399.59;5010448;28;20425;-73
2021/07/19 02:05:35;;;;;;;15.80;14.10;;;;;;;26.00;100.00;100396.91;5010559;28;20849;-74
2021/07/19 02:08:02;;;;;;;20.33;14.47;;;;;;;25.97;100.00;100394.63;5010964;28;20444;-72
2021/07/19 02:10:30;;;;;;;30.40;16.00;;;;;;;25.84;100.00;100402.72;5010674;28;20242;-73
2021/07/19 02:12:56;;;;;;;17.10;13.37;;;;;;;25.87;100.00;100394.25;5005120;28;20414;-73
2021/07/19 02:15:23;;;;;;;23.07;13.80;;;;;;;25.81;100.00;100408.53;5010713;28;20958;-74
2021/07/19 02:17:55;;;;;;;16.47;12.47;;;;;;;25.70;100.00;100408.13;5010307;28;20421;-76
2021/07/19 02:20:22;;;;;;;16.33;11.77;;;;;;;25.78;100.00;100414.38;5010399;28;20994;-73
2021/07/19 02:22:48;;;;;;;14.03;12.63;;;;;;;25.78;100.00;100403.59;5010746;28;20432;-73
2021/07/19 02:25:15;;;;;;;13.03;11.63;;;;;;;25.72;100.00;100413.31;5009867;28;20520;-74
2021/07/19 02:27:43;;;;;;;14.97;12.40;;;;;;;25.63;100.00;100417.25;5009644;28;20425;-71
2021/07/19 02:30:12;;;;;;;16.00;11.60;;;;;;;25.59;100.00;100429.44;5009955;28;20405;-72
2021/07/19 02:32:44;;;;;;;16.80;12.07;;;;;;;25.63;100.00;100431.53;5010280;28;20424;-73
2021/07/19 02:35:12;;;;;;;19.57;12.67;;;;;;;25.59;100.00;100435.66;5009563;28;20554;-73
2021/07/19 02:37:39;;;;;;;14.53;11.77;;;;;;;25.61;100.00;100438.97;5010673;28;20401;-75
2021/07/19 02:40:09;;;;;;;17.40;13.17;;;;;;;25.59;100.00;100438.34;5010393;28;20432;-72
2021/07/19 02:42:46;;;;;;;20.83;13.60;;;;;;;25.55;100.00;100439.81;5008974;28;20476;-73
2021/07/19 02:45:14;;;;;;;15.33;13.70;;;;;;;25.59;100.00;100446.44;5009580;28;20409;-72
2021/07/19 02:47:43;;;;;;;17.97;14.37;;;;;;;25.51;100.00;100443.94;5009904;28;20416;-72
2021/07/19 02:50:10;;;;;;;21.97;15.50;;;;;;;25.42;100.00;100445.19;5012234;28;20409;-77
2021/07/19 02:52:37;;;;;;;18.50;15.30;;;;;;;25.37;100.00;100447.66;5014631;28;20441;-72
2021/07/19 02:55:04;;;;;;;18.70;15.90;;;;;;;25.29;100.00;100448.69;5013739;28;21092;-73
2021/07/19 02:57:31;;;;;;;22.93;16.63;;;;;;;25.16;100.00;100456.75;5013711;28;20509;-72
2021/07/19 02:59:59;;;;;;;18.70;16.70;;;;;;;25.04;100.00;100458.41;5013963;28;20461;-73
2021/07/19 03:02:25;;;;;;;20.27;16.87;;;;;;;25.00;100.00;100460.63;5013526;28;20401;-73
2021/07/19 03:04:55;;;;;;;22.07;18.57;;;;;;;24.88;100.00;100464.94;5013772;28;20433;-75
2021/07/19 03:07:23;;;;;;;22.20;18.10;;;;;;;24.83;100.00;100460.16;5013931;28;20419;-73
2021/07/19 03:09:55;;;;;;;20.80;18.37;;;;;;;24.79;100.00;100468.84;5013688;28;20492;-76
2021/07/19 03:12:23;;;;;;;25.57;18.27;;;;;;;24.73;100.00;100467.81;5013424;28;20417;-75
2021/07/19 03:14:49;;;;;;;26.33;19.20;;;;;;;24.71;100.00;100461.81;5013738;28;20397;-77
2021/07/19 03:17:19;;;;;;;31.63;18.50;;;;;;;24.66;100.00;100458.06;5013694;28;20509;-76
2021/07/19 03:19:47;;;;;;;24.53;18.73;;;;;;;24.58;100.00;100461.75;5013454;28;20408;-72
2021/07/19 03:22:15;;;;;;;28.40;20.53;;;;;;;24.54;100.00;100465.84;5013138;28;20429;-73
2021/07/19 03:24:44;;;;;;;30.43;20.27;;;;;;;24.64;100.00;100471.69;5013774;28;20882;-72
2021/07/19 03:27:10;;;;;;;32.30;20.30;;;;;;;24.63;100.00;100478.91;5013898;28;20821;-74
2021/07/19 03:29:36;;;;;;;23.67;18.53;;;;;;;24.62;100.00;100477.25;5013098;28;20929;-75
2021/07/19 03:32:04;;;;;;;23.53;19.77;;;;;;;24.61;100.00;100478.28;5011553;28;20466;-75
2021/07/19 03:34:30;;;;;;;30.67;19.97;;;;;;;24.62;100.00;100477.25;5012322;28;20994;-72
2021/07/19 03:36:56;;;;;;;30.07;18.23;;;;;;;24.67;100.00;100468.59;5010689;28;20456;-75
2021/07/19 03:39:24;;;;;;;30.63;19.87;;;;;;;24.70;100.00;100475.41;5013199;28;20409;-75
2021/07/19 03:41:50;;;;;;;28.30;20.07;;;;;;;24.69;100.00;100476.44;5012791;28;20409;-76
2021/07/19 03:44:16;;;;;;;27.60;19.80;;;;;;;24.74;100.00;100474.81;5013103;28;20416;-77
2021/07/19 03:46:44;;;;;;;25.10;18.90;;;;;;;24.78;100.00;100483.31;5013217;28;20505;-77
2021/07/19 03:49:14;;;;;;;36.93;19.03;;;;;;;24.84;100.00;100483.31;5019821;28;20501;-74
2021/07/19 03:51:43;;;;;;;43.00;20.20;;;;;;;24.89;100.00;100488.09;5019833;28;20436;-74
2021/07/19 03:54:09;;;;;;;31.30;20.17;;;;;;;24.86;100.00;100485.81;5018273;28;20612;-74
2021/07/19 03:56:35;;;;;;;30.00;21.60;;;;;;;24.97;100.00;100497.84;5015593;28;20460;-75
2021/07/19 03:59:02;;;;;;;24.63;20.30;;;;;;;25.16;100.00;100495.25;5012581;28;20178;-72
2021/07/19 04:01:28;;;;;;;44.53;20.67;;;;;;;25.21;100.00;100497.31;5004507;28;20932;-76
2021/07/19 04:03:55;;;;;;;28.17;18.80;;;;;;;25.39;100.00;100502.94;5012378;28;20406;-75
2021/07/19 04:06:24;;;;;;;27.43;20.73;;;;;;;25.41;100.00;100514.31;5012655;28;20567;-75
2021/07/19 04:08:50;;;;;;;32.53;19.77;;;;;;;25.52;100.00;100514.75;5012935;28;20417;-73
2021/07/19 04:11:17;;;;;;;30.17;20.30;;;;;;;25.54;100.00;100502.72;5016536;28;20786;-71
2021/07/19 04:13:44;;;;;;;34.67;19.70;;;;;;;25.62;100.00;100499.03;5012517;28;20496;-73
2021/07/19 04:16:14;;;;;;;37.03;20.37;;;;;;;25.63;100.00;100493.44;5012403;28;20449;-72
2021/07/19 04:18:39;;;;;;;81.30;23.40;;;;;;;25.69;100.00;100487.22;5012312;28;20413;-72
2021/07/19 04:21:06;;;;;;;40.60;19.37;;;;;;;25.81;100.00;100489.31;5012186;28;20404;-72
2021/07/19 04:23:32;;;;;;;35.27;19.13;;;;;;;25.98;100.00;100482.44;5012179;28;21615;-72
2021/07/19 04:25:58;;;;;;;25.73;18.23;;;;;;;26.16;100.00;100489.88;5011756;28;20483;-72
2021/07/19 04:28:24;;;;;;;20.30;16.93;;;;;;;26.42;100.00;100491.69;5012662;28;20744;-74
2021/07/19 04:30:51;;;;;;;21.47;17.07;;;;;;;26.57;100.00;100489.56;5012171;28;20429;-71
2021/07/19 04:33:17;;;;;;;21.97;15.40;;;;;;;26.89;100.00;100484.25;5007303;28;20214;-74
2021/07/19 04:35:45;;;;;;;39.63;18.80;;;;;;;26.96;100.00;100472.38;5010650;28;20484;-71
2021/07/19 04:38:13;;;;;;;21.37;15.90;;;;;;;27.19;100.00;100473.72;5011244;28;20409;-71
2021/07/19 04:40:39;;;;;;;26.30;15.33;;;;;;;27.24;100.00;100469.31;5010107;28;20508;-72
2021/07/19 04:43:04;;;;;;;30.27;16.93;;;;;;;27.34;100.00;100464.25;5010435;28;20771;-73
2021/07/19 04:45:30;;;;;;;30.23;24.23;;;;;;;27.40;100.00;100451.75;5010864;28;20190;-74
2021/07/19 04:47:55;;;;;;;19.87;15.63;;;;;;;27.52;100.00;100431.13;5011144;28;20165;-75
2021/07/19 04:50:21;;;;;;;15.90;13.50;;;;;;;27.66;100.00;100410.22;5011197;28;20181;-73
2021/07/19 04:52:47;;;;;;;16.53;13.90;;;;;;;27.72;100.00;100403.94;5011532;28;20171;-73
2021/07/19 04:55:18;;;;;;;18.07;13.60;;;;;;;27.73;100.00;100408.28;5010171;28;20707;-72
2021/07/19 04:57:45;;;;;;;17.97;14.23;;;;;;;27.65;100.00;100432.84;5011261;28;20788;-74
2021/07/19 05:00:11;;;;;;;18.50;14.07;;;;;;;27.86;100.00;100442.44;5010854;28;20466;-76
2021/07/19 05:02:40;;;;;;;19.30;13.53;;;;;;;27.97;100.00;100446.31;5009857;28;20444;-74
2021/07/19 05:05:07;;;;;;;21.60;16.90;;;;;;;27.93;100.00;100454.00;5011047;28;20979;-73
2021/07/19 05:07:33;;;;;;;21.70;15.93;;;;;;;27.88;100.00;100459.25;5010718;28;20406;-72
2021/07/19 05:10:03;;;;;;;21.17;16.67;;;;;;;27.75;100.00;100478.31;5010658;28;20429;-73
2021/07/19 05:12:31;;;;;;;23.20;18.77;;;;;;;27.56;100.00;100489.00;5010769;28;20851;-73
2021/07/19 05:14:58;;;;;;;31.07;19.53;;;;;;;27.32;100.00;100493.34;5010758;28;20417;-72
2021/07/19 05:17:27;;;;;;;31.63;18.47;;;;;;;27.05;100.00;100489.16;5010515;28;20405;-72
2021/07/19 05:19:53;;;;;;;30.50;20.00;;;;;;;27.11;100.00;100482.91;5010315;28;20402;-72
2021/07/19 05:22:19;;;;;;;30.10;18.50;;;;;;;27.18;100.00;100478.28;5009428;28;20432;-72
2021/07/19 05:24:44;;;;;;;24.27;16.63;;;;;;;27.24;100.00;100476.59;5011143;28;20401;-72
2021/07/19 05:27:13;;;;;;;22.77;17.20;;;;;;;27.36;100.00;100467.59;5010577;28;20232;-71
2021/07/19 05:29:40;;;;;;;23.53;17.70;;;;;;;27.55;100.00;100475.72;5010448;28;20174;-73
2021/07/19 05:32:09;;;;;;;23.73;18.07;;;;;;;27.76;100.00;100483.47;5010136;28;20424;-71
2021/07/19 05:34:35;;;;;;;22.60;18.30;;;;;;;28.03;100.00;100475.09;5010269;28;20453;-72
2021/07/19 05:37:02;;;;;;;25.50;17.90;;;;;;;28.46;100.00;100473.19;5010052;28;20453;-72
2021/07/19 05:39:28;;;;;;;21.30;15.00;;;;;;;28.75;100.00;100468.06;5009964;28;20406;-71
2021/07/19 05:41:54;;;;;;;15.37;13.43;;;;;;;29.00;100.00;100476.06;5009842;28;20417;-73
2021/07/19 05:44:19;;;;;;;14.70;13.20;;;;;;;29.08;100.00;100467.59;5009622;28;20185;-73
2021/07/19 05:46:45;;;;;;;26.30;14.97;;;;;;;29.05;100.00;100462.66;5010104;28;20542;-72
2021/07/19 05:49:11;;;;;;;16.13;13.70;;;;;;;29.21;100.00;100467.41;5010669;28;20182;-71
2021/07/19 05:51:36;;;;;;;22.47;15.20;;;;;;;29.27;100.00;100466.50;5010167;28;20181;-74
2021/07/19 05:54:03;;;;;;;21.27;13.23;;;;;;;29.37;100.00;100462.38;5009748;28;20174;-72
2021/07/19 05:56:31;;;;;;;18.43;13.30;;;;;;;29.37;100.00;100455.09;5009847;28;20190;-71
2021/07/19 05:58:56;;;;;;;14.70;12.00;;;;;;;29.32;100.00;100454.13;5009854;28;20460;-71
2021/07/19 06:01:24;;;;;;;15.50;12.70;;;;;;;29.34;100.00;100455.56;5008698;28;20413;-74
2021/07/19 06:03:49;;;;;;;19.53;13.93;;;;;;;29.41;100.00;100453.56;5005729;28;20654;-73
2021/07/19 06:06:15;;;;;;;13.83;11.50;;;;;;;29.53;100.00;100451.72;5008789;28;20978;-72
2021/07/19 06:08:40;;;;;;;14.40;12.20;;;;;;;29.62;100.00;100449.47;5007319;28;20198;-74
2021/07/19 06:11:06;;;;;;;17.10;12.40;;;;;;;29.65;100.00;100448.19;5005429;28;20186;-74
2021/07/19 06:13:31;;;;;;;18.87;12.60;;;;;;;29.75;100.00;100459.25;5007966;28;20193;-75
2021/07/19 06:15:57;;;;;;;14.90;11.23;;;;;;;29.64;100.00;100447.38;5004647;28;20210;-75
2021/07/19 06:18:22;;;;;;;20.30;13.27;;;;;;;29.72;100.00;100457.88;5008002;28;20632;-72
2021/07/19 06:20:48;;;;;;;12.17;10.90;;;;;;;29.78;100.00;100456.94;5009734;28;20182;-72
2021/07/19 06:23:15;;;;;;;12.30;10.63;;;;;;;29.91;100.00;100453.13;5008750;28;20495;-72
2021/07/19 06:25:42;;;;;;;13.63;11.47;;;;;;;30.05;100.00;100459.13;5012798;28;20205;-74
2021/07/19 06:28:08;;;;;;;15.00;10.83;;;;;;;30.05;100.00;100462.66;5014008;28;20411;-75
2021/07/19 06:30:34;;;;;;;16.27;13.67;;;;;;;30.17;100.00;100453.75;5012700;28;20416;-74
2021/07/19 06:32:59;;;;;;;14.90;11.00;;;;;;;30.19;100.00;100459.75;5013306;28;20429;-74
2021/07/19 06:35:26;;;;;;;16.10;11.23;;;;;;;30.36;100.00;100464.16;5013375;28;20241;-72
2021/07/19 06:37:54;;;;;;;14.60;11.80;;;;;;;30.47;100.00;100454.38;5013720;28;20170;-74
2021/07/19 06:40:19;;;;;;;12.83;10.83;;;;;;;30.44;100.00;100457.53;5027060;28;20429;-73
2021/07/19 06:42:46;;;;;;;21.33;11.10;;;;;;;30.55;100.00;100469.44;5012743;28;20937;-75
2021/07/19 06:45:13;;;;;;;16.53;11.67;;;;;;;30.69;100.00;100461.88;5012863;28;20171;-74
2021/07/19 06:47:39;;;;;;;22.77;12.30;;;;;;;30.66;100.00;100458.56;5012428;28;20436;-75
2021/07/19 06:50:10;;;;;;;15.37;12.20;;;;;;;30.81;100.00;100458.03;5012586;28;20420;-74
2021/07/19 06:52:37;;;;;;;13.33;11.63;;;;;;;30.83;100.00;100460.50;5013222;28;20942;-76
2021/07/19 06:55:04;;;;;;;19.13;12.93;;;;;;;30.83;100.00;100460.50;5013256;28;20431;-73
2021/07/19 06:57:30;;;;;;;15.90;12.50;;;;;;;30.88;100.00;100464.13;5013057;28;20419;-73
2021/07/19 06:59:56;;;;;;;14.13;10.47;;;;;;;30.81;100.00;100465.34;5018112;28;20401;-75
2021/07/19 07:02:22;;;;;;;13.97;10.73;;;;;;;30.87;100.00;100465.22;5014220;28;20194;-75
2021/07/19 07:04:47;;;;;;;14.30;9.77;;;;;;;30.87;100.00;100464.38;5012141;28;20201;-72
2021/07/19 07:07:13;;;;;;;10.30;9.30;;;;;;;30.99;100.00;100458.91;5012042;28;20170;-74
2021/07/19 07:09:39;;;;;;;14.97;11.30;;;;;;;30.94;100.00;100459.63;4994639;28;20177;-74
2021/07/19 07:12:05;;;;;;;13.67;12.17;;;;;;;31.03;100.00;100462.78;5011904;28;20228;-72
2021/07/19 07:14:31;;;;;;;15.10;10.00;;;;;;;31.07;100.00;100456.63;5013815;28;20425;-72
2021/07/19 07:16:56;;;;;;;15.03;11.77;;;;;;;31.10;100.00;100456.13;5011743;28;20491;-73
2021/07/19 07:19:23;;;;;;;19.23;11.00;;;;;;;31.15;100.00;100460.81;5009223;28;20656;-74
2021/07/19 07:21:49;;;;;;;18.03;14.77;;;;;;;31.32;100.00;100458.97;5011610;28;20190;-74
2021/07/19 07:24:14;;;;;;;17.23;11.43;;;;;;;31.42;100.00;100450.97;5011965;28;20435;-74
2021/07/19 07:26:40;;;;;;;17.67;11.27;;;;;;;31.59;100.00;100448.28;5012337;28;20421;-75
2021/07/19 07:29:06;;;;;;;19.70;11.73;;;;;;;31.67;100.00;100444.31;5005903;28;20553;-76
2021/07/19 07:31:31;;;;;;;12.73;10.07;;;;;;;31.83;100.00;100448.09;5011872;28;20177;-73
2021/07/19 07:33:59;;;;;;;15.53;10.20;;;;;;;31.85;100.00;100445.94;5011817;28;20216;-74
2021/07/19 07:36:33;;;;;;;17.87;11.27;;;;;;;31.91;100.00;100443.06;5010051;28;20186;-75
2021/07/19 07:39:02;;;;;;;12.90;9.90;;;;;;;31.90;100.00;100435.16;5008635;28;20440;-75
2021/07/19 07:41:30;;;;;;;22.07;12.63;;;;;;;31.96;100.00;100434.13;5011631;28;20419;-75
2021/07/19 07:43:56;;;;;;;14.60;10.73;;;;;;;32.02;100.00;100430.41;5011342;28;20777;-74
2021/07/19 07:46:23;;;;;;;17.73;10.43;;;;;;;32.01;100.00;100435.03;5011769;28;20416;-74
2021/07/19 07:48:52;;;;;;;16.30;10.60;;;;;;;32.05;100.00;100442.69;5012634;28;21139;-73
2021/07/19 07:51:18;;;;;;;13.67;11.50;;;;;;;32.18;100.00;100434.97;5003301;28;20950;-74
2021/07/19 07:53:44;;;;;;;13.80;11.30;;;;;;;32.25;100.00;100437.50;5012612;28;20409;-74
2021/07/19 07:56:10;;;;;;;15.63;11.63;;;;;;;32.26;100.00;100429.09;5011421;28;20518;-74
2021/07/19 07:58:35;;;;;;;16.30;10.80;;;;;;;32.71;100.00;100427.16;5011409;28;20174;-74
2021/07/19 08:01:01;;;;;;;13.10;11.37;;;;;;;32.88;100.00;100432.56;5010794;28;20166;-74
2021/07/19 08:03:27;;;;;;;14.67;12.13;;;;;;;32.92;100.00;100414.63;5011454;28;20254;-74
2021/07/19 08:05:52;;;;;;;18.83;12.50;;;;;;;32.98;100.00;100419.84;5011270;28;20253;-72
2021/07/19 08:08:18;;;;;;;15.43;11.43;;;;;;;33.07;100.00;100425.66;5011541;28;20158;-75
2021/07/19 08:10:43;;;;;;;14.53;12.53;;;;;;;33.28;100.00;100429.38;5011624;28;20197;-75
2021/07/19 08:13:09;;;;;;;48.23;13.37;;;;;;;33.33;100.00;100419.34;5011930;28;20648;-74
2021/07/19 08:15:36;;;;;;;12.93;11.67;;;;;;;33.57;100.00;100416.25;5010757;28;20205;-73
2021/07/19 08:18:02;;;;;;;22.63;14.00;;;;;;;33.55;100.00;100426.59;5010693;28;20605;-73
2021/07/19 08:20:27;;;;;;;18.00;13.10;;;;;;;33.45;100.00;100431.97;5009909;28;20468;-74
2021/07/19 08:22:54;;;;;;;16.87;15.17;;;;;;;33.46;100.00;100425.44;5010708;28;20429;-71
2021/07/19 08:25:20;;;;;;;18.50;13.40;;;;;;;33.58;100.00;100424.19;5034646;28;20218;-72
2021/07/19 08:27:52;;;;;;;17.20;14.20;;;;;;;33.74;100.00;100411.47;5011191;28;20500;-72
2021/07/19 08:30:18;;;;;;;15.10;13.60;;;;;;;34.09;100.00;100412.75;5010392;28;20175;-72
2021/07/19 08:32:47;;;;;;;15.33;12.97;;;;;;;34.02;100.00;100412.19;5011106;28;20409;-73
2021/07/19 08:35:14;;;;;;;17.10;13.40;;;;;;;33.76;100.00;100412.00;5010791;28;20888;-73
2021/07/19 08:37:41;;;;;;;17.93;12.80;;;;;;;33.69;100.00;100416.88;5000221;28;20452;-74
2021/07/19 08:40:08;;;;;;;14.20;12.60;;;;;;;33.58;100.00;100413.28;5009435;28;20424;-72
2021/07/19 08:42:35;;;;;;;16.03;13.60;;;;;;;33.58;100.00;100428.81;5009578;28;20421;-73
2021/07/19 08:45:04;;;;;;;15.20;13.60;;;;;;;33.51;100.00;100430.94;5002255;28;20425;-74
2021/07/19 08:47:30;;;;;;;17.20;14.53;;;;;;;33.36;100.00;100434.34;5010619;28;20424;-75
2021/07/19 08:49:56;;;;;;;16.60;13.33;;;;;;;33.39;100.00;100428.38;5011139;28;20798;-73
2021/07/19 08:52:22;;;;;;;15.27;12.97;;;;;;;33.59;100.00;100422.28;5009765;28;20222;-74
2021/07/19 08:54:48;;;;;;;22.17;14.93;;;;;;;33.63;100.00;100431.53;5005469;28;20174;-73
2021/07/19 08:57:14;;;;;;;21.40;18.20;;;;;;;33.68;100.00;100428.84;5009225;28;20463;-74
2021/07/19 08:59:40;;;;;;;23.63;17.13;;;;;;;33.73;100.00;100420.72;5009114;28;20543;-74
2021/07/19 09:02:06;;;;;;;14.73;12.93;;;;;;;33.97;100.00;100432.06;5009706;28;20938;-76
2021/07/19 09:04:32;;;;;;;18.23;14.77;;;;;;;34.06;100.00;100424.19;5007629;28;20521;-76
2021/07/19 09:06:58;;;;;;;18.90;13.33;;;;;;;34.19;100.00;100424.53;5010311;28;20911;-75
2021/07/19 09:09:28;;;;;;;14.90;13.30;;;;;;;34.06;100.00;100425.00;5009587;28;20175;-75
2021/07/19 09:11:55;;;;;;;22.90;17.30;;;;;;;33.87;100.00;100437.44;5009894;28;20269;-76
2021/07/19 09:14:21;;;;;;;25.43;20.30;;;;;;;33.71;100.00;100430.25;5009535;28;20907;-73
2021/07/19 09:16:48;;;;;;;17.93;13.50;;;;;;;33.60;100.00;100432.09;5008642;28;20460;-73
2021/07/19 09:19:19;;;;;;;16.13;14.17;;;;;;;33.57;100.00;100443.53;5008532;28;20166;-73
2021/07/19 09:21:47;;;;;;;16.70;13.00;;;;;;;33.66;100.00;100445.47;5008814;28;21008;-73
2021/07/19 09:24:18;;;;;;;24.73;19.00;;;;;;;33.64;100.00;100444.94;5009460;28;20832;-73
2021/07/19 09:26:46;;;;;;;17.07;14.27;;;;;;;33.70;100.00;100440.31;5009183;28;20432;-73
2021/07/19 09:29:13;;;;;;;17.33;13.67;;;;;;;33.57;100.00;100438.06;5009271;28;20448;-74
2021/07/19 09:31:44;;;;;;;20.07;14.70;;;;;;;33.50;100.00;100448.38;5009187;28;20429;-74
2021/07/19 09:34:16;;;;;;;15.87;13.53;;;;;;;33.34;100.00;100448.22;5009615;28;21058;-74
2021/07/19 09:37:06;;;;;;;15.87;13.87;;;;;;;33.35;100.00;100451.78;5007376;28;20548;-72
2021/07/19 09:39:40;;;;;;;18.37;16.47;;;;;;;33.19;100.00;100453.53;5007792;28;20417;-74
2021/07/19 09:42:14;;;;;;;20.83;16.27;;;;;;;33.06;100.00;100462.13;5007909;28;20417;-75
2021/07/19 09:44:41;;;;;;;19.30;15.97;;;;;;;33.06;100.00;100456.69;5008267;28;20484;-75
2021/07/19 09:47:13;;;;;;;19.30;17.30;;;;;;;32.83;100.00;100457.78;5008930;28;20476;-75
2021/07/19 09:49:41;;;;;;;18.27;16.20;;;;;;;32.86;100.00;100457.31;5008475;28;20440;-74
2021/07/19 09:52:15;;;;;;;18.47;16.70;;;;;;;33.22;100.00;100461.19;5008743;28;20428;-74
2021/07/19 09:54:44;;;;;;;20.20;16.10;;;;;;;33.41;100.00;100460.84;5008087;28;20417;-74
2021/07/19 09:57:11;;;;;;;16.73;14.83;;;;;;;33.66;100.00;100452.84;5008330;28;20441;-74
2021/07/19 09:59:51;;;;;;;21.87;16.77;;;;;;;33.56;100.00;100456.34;5008009;28;20421;-73
2021/07/19 10:02:39;;;;;;;18.77;15.83;;;;;;;33.52;100.00;100448.94;5008931;28;20926;-73
2021/07/19 10:05:08;;;;;;;18.40;15.37;;;;;;;33.31;100.00;100459.63;4999190;28;20453;-73
2021/07/19 10:07:35;;;;;;;18.07;16.07;;;;;;;33.29;100.00;100456.34;5008210;28;20915;-73
2021/07/19 10:10:05;;;;;;;14.97;13.47;;;;;;;33.34;100.00;100461.84;5008962;28;20915;-76
2021/07/19 10:12:31;;;;;;;18.17;13.50;;;;;;;33.32;100.00;100463.16;5008949;28;20412;-73
2021/07/19 10:14:57;;;;;;;16.33;13.70;;;;;;;33.37;100.00;100455.03;5007946;28;20417;-74
2021/07/19 10:17:24;;;;;;;19.37;12.37;;;;;;;33.22;100.00;100453.00;5007990;28;20198;-73
2021/07/19 10:19:52;;;;;;;13.27;11.67;;;;;;;33.24;100.00;100452.75;5008247;28;20414;-74
2021/07/19 10:22:18;;;;;;;13.93;10.50;;;;;;;33.43;100.00;100447.78;5007878;28;20409;-72
2021/07/19 10:24:45;;;;;;;12.20;10.03;;;;;;;33.79;100.00;100446.94;5007984;28;20899;-73
2021/07/19 10:27:17;;;;;;;11.93;10.67;;;;;;;33.88;100.00;100439.91;5009384;28;20224;-74
2021/07/19 10:29:44;;;;;;;16.43;10.67;;;;;;;33.82;100.00;100435.50;5008868;28;20927;-73
2021/07/19 10:32:11;;;;;;;15.00;11.00;;;;;;;33.77;100.00;100435.44;5008034;28;20424;-72
2021/07/19 10:34:40;;;;;;;36.50;33.07;;;;;;;33.34;100.00;100433.78;4987143;28;20473;-73
2021/07/19 10:37:09;;;;;;;18.00;11.00;;;;;;;33.36;100.00;100447.97;4988817;28;20464;-73
2021/07/19 10:39:38;;;;;;;13.70;10.77;;;;;;;33.24;100.00;100439.94;4989177;28;20411;-73
2021/07/19 10:42:07;;;;;;;11.77;10.30;;;;;;;33.11;100.00;100451.31;4988793;28;20416;-71
2021/07/19 10:44:35;;;;;;;17.20;11.80;;;;;;;33.21;100.00;100443.22;4986247;28;21269;-72
2021/07/19 10:47:16;;;;;;;17.20;11.70;;;;;;;33.09;100.00;100453.44;4988253;28;20418;-73
2021/07/19 10:49:57;;;;;;;14.40;11.00;;;;;;;33.20;100.00;100455.19;4985671;28;20764;-71
2021/07/19 10:52:37;;;;;;;12.90;11.03;;;;;;;33.12;100.00;100456.47;4989223;28;20799;-72
2021/07/19 10:55:05;;;;;;;16.03;10.40;;;;;;;33.17;100.00;100458.41;4989171;28;20923;-74
2021/07/19 10:57:42;;;;;;;11.10;9.97;;;;;;;33.33;100.00;100454.75;4988290;28;20454;-73
2021/07/19 11:00:16;;;;;;;15.87;10.40;;;;;;;33.39;100.00;100452.91;4989750;28;20410;-73
2021/07/19 11:02:42;;;;;;;17.10;11.20;;;;;;;33.34;100.00;100453.69;4988832;28;20417;-73
2021/07/19 11:05:08;;;;;;;13.43;10.60;;;;;;;33.12;100.00;100459.22;4989438;28;20558;-73